createdAt,value
2022-10-10T00:00:51.965Z,10.55
2022-10-10T00:03:19.864Z,13.35
2022-10-10T00:05:46.442Z,12.85
2022-10-10T00:08:13.146Z,14.32
2022-10-10T00:10:39.661Z,13.15
2022-10-10T00:13:06.263Z,11.88
2022-10-10T00:15:33.328Z,13.73
2022-10-10T00:18:00.235Z,11.05
2022-10-10T00:20:27.153Z,12.25
2022-10-10T00:22:54.332Z,12.43
2022-10-10T00:25:20.877Z,12.07
2022-10-10T00:27:47.438Z,11.70
2022-10-10T00:30:14.093Z,12.73
2022-10-10T00:32:40.693Z,12.43
2022-10-10T00:35:07.629Z,12.82
2022-10-10T00:37:34.140Z,15.35
2022-10-10T00:40:00.662Z,15.65
2022-10-10T00:42:27.161Z,14.18
2022-10-10T00:45:24.480Z,12.05
2022-10-10T00:47:56.913Z,16.70
2022-10-10T00:50:24.805Z,17.52
2022-10-10T00:52:52.187Z,16.60
2022-10-10T00:55:19.429Z,21.10
2022-10-10T00:57:46.448Z,13.35
2022-10-10T01:00:13.843Z,20.58
2022-10-10T01:02:40.557Z,18.48
2022-10-10T01:05:07.356Z,12.82
2022-10-10T01:07:34.588Z,16.33
2022-10-10T01:10:11.813Z,12.85
2022-10-10T01:13:03.006Z,12.63
2022-10-10T01:15:35.737Z,14.25
2022-10-10T01:18:30.057Z,10.75
2022-10-10T01:21:13.240Z,16.70
2022-10-10T01:24:17.647Z,14.65
2022-10-10T01:27:06.517Z,15.05
2022-10-10T01:29:39.060Z,16.02
2022-10-10T01:32:13.464Z,14.13
2022-10-10T01:35:14.426Z,17.70
2022-10-10T01:37:56.778Z,15.30
2022-10-10T01:41:04.746Z,14.95
2022-10-10T01:43:31.424Z,14.82
2022-10-10T01:45:58.180Z,16.08
2022-10-10T01:48:30.245Z,18.38
2022-10-10T01:51:15.218Z,16.85
2022-10-10T01:54:23.148Z,16.67
2022-10-10T01:57:05.159Z,17.13
2022-10-10T01:59:40.602Z,16.83
2022-10-10T02:02:40.502Z,14.35
2022-10-10T02:05:14.070Z,18.50
2022-10-10T02:07:57.274Z,18.45
2022-10-10T02:10:31.315Z,18.30
2022-10-10T02:12:59.494Z,19.48
2022-10-10T02:15:31.548Z,15.90
2022-10-10T02:18:00.391Z,15.02
2022-10-10T02:20:29.224Z,17.05
2022-10-10T02:22:56.634Z,16.05
2022-10-10T02:25:29.472Z,19.95
2022-10-10T02:28:11.389Z,17.70
2022-10-10T02:30:43.004Z,19.35
2022-10-10T02:33:10.885Z,16.17
2022-10-10T02:35:42.789Z,15.55
2022-10-10T02:38:12.945Z,16.92
2022-10-10T02:40:41.739Z,12.73
2022-10-10T02:43:11.036Z,15.48
2022-10-10T02:45:39.598Z,15.90
2022-10-10T02:48:06.585Z,14.70
2022-10-10T02:50:34.055Z,16.98
2022-10-10T02:53:00.570Z,15.65
2022-10-10T02:55:27.255Z,14.75
2022-10-10T02:57:54.090Z,16.35
2022-10-10T03:00:20.703Z,17.38
2022-10-10T03:02:47.378Z,14.10
2022-10-10T03:05:14.339Z,13.98
2022-10-10T03:07:40.859Z,15.45
2022-10-10T03:10:07.786Z,14.07
2022-10-10T03:12:35.485Z,13.95
2022-10-10T03:15:02.284Z,14.55
2022-10-10T03:17:28.913Z,18.80
2022-10-10T03:19:55.404Z,14.82
2022-10-10T03:22:22.040Z,18.48
2022-10-10T03:24:48.588Z,16.98
2022-10-10T03:27:15.179Z,13.57
2022-10-10T03:29:41.659Z,17.88
2022-10-10T03:32:11.031Z,17.15
2022-10-10T03:34:37.912Z,23.77
2022-10-10T03:37:04.700Z,21.23
2022-10-10T03:39:31.235Z,16.27
2022-10-10T03:41:57.878Z,23.23
2022-10-10T03:44:24.518Z,17.20
2022-10-10T03:46:51.021Z,18.90
2022-10-10T03:49:17.755Z,17.67
2022-10-10T03:51:44.305Z,21.50
2022-10-10T03:54:10.936Z,24.65
2022-10-10T03:56:37.491Z,24.38
2022-10-10T03:59:06.135Z,18.80
2022-10-10T04:01:33.432Z,19.00
2022-10-10T04:04:00.265Z,19.83
2022-10-10T04:06:27.697Z,15.45
2022-10-10T04:08:54.244Z,21.00
2022-10-10T04:11:21.010Z,21.95
2022-10-10T04:13:47.710Z,18.45
2022-10-10T04:16:14.581Z,20.65
2022-10-10T04:18:41.134Z,23.42
2022-10-10T04:21:07.668Z,21.75
2022-10-10T04:23:35.174Z,25.52
2022-10-10T04:26:01.865Z,17.52
2022-10-10T04:28:28.404Z,18.70
2022-10-10T04:30:56.692Z,18.08
2022-10-10T04:33:23.363Z,19.20
2022-10-10T04:35:50.466Z,19.38
2022-10-10T04:38:17.972Z,22.38
2022-10-10T04:40:44.526Z,21.67
2022-10-10T04:43:11.078Z,15.88
2022-10-10T04:45:37.895Z,24.88
2022-10-10T04:48:05.001Z,22.30
2022-10-10T04:50:31.611Z,21.83
2022-10-10T04:52:58.140Z,18.77
2022-10-10T04:55:24.677Z,23.55
2022-10-10T04:57:51.220Z,24.02
2022-10-10T05:00:17.739Z,18.88
2022-10-10T05:02:44.209Z,22.27
2022-10-10T05:05:11.038Z,20.67
2022-10-10T05:07:37.983Z,25.05
2022-10-10T05:10:06.177Z,21.33
2022-10-10T05:12:33.226Z,20.45
2022-10-10T05:14:59.885Z,22.85
2022-10-10T05:17:26.433Z,22.77
2022-10-10T05:19:53.846Z,25.25
2022-10-10T05:22:20.549Z,19.80
2022-10-10T05:24:47.084Z,20.77
2022-10-10T05:27:13.834Z,24.60
2022-10-10T05:29:40.890Z,20.92
2022-10-10T05:32:10.270Z,18.85
2022-10-10T05:34:40.589Z,22.30
2022-10-10T05:37:09.368Z,23.00
2022-10-10T05:39:41.555Z,21.92
2022-10-10T05:42:11.288Z,21.98
2022-10-10T05:44:37.746Z,23.90
2022-10-10T05:47:04.499Z,23.08
2022-10-10T05:49:30.976Z,24.67
2022-10-10T05:51:57.522Z,24.35
2022-10-10T05:54:24.560Z,24.13
2022-10-10T05:56:50.991Z,22.67
2022-10-10T05:59:17.455Z,22.13
2022-10-10T06:01:43.903Z,23.95
2022-10-10T06:04:10.325Z,25.80
2022-10-10T06:06:36.778Z,26.25
2022-10-10T06:09:03.842Z,22.70
2022-10-10T06:11:30.301Z,32.40
2022-10-10T06:13:57.302Z,21.63
2022-10-10T06:16:26.195Z,25.67
2022-10-10T06:18:53.212Z,23.33
2022-10-10T06:21:20.407Z,23.35
2022-10-10T06:23:46.853Z,23.73
2022-10-10T06:26:13.285Z,20.67
2022-10-10T06:28:39.744Z,23.40
2022-10-10T06:31:08.477Z,24.85
2022-10-10T06:33:37.228Z,23.05
2022-10-10T06:36:08.185Z,25.00
2022-10-10T06:38:39.343Z,25.60
2022-10-10T06:41:07.114Z,22.42
2022-10-10T06:43:34.279Z,24.90
2022-10-10T06:46:02.185Z,24.52
2022-10-10T06:48:34.748Z,28.25
2022-10-10T06:51:04.917Z,28.60
2022-10-10T06:53:32.202Z,25.83
2022-10-10T06:55:59.229Z,26.08
2022-10-10T06:58:27.821Z,29.52
2022-10-10T07:00:56.681Z,30.15
2022-10-10T07:03:23.756Z,30.80
2022-10-10T07:05:52.501Z,24.23
2022-10-10T07:08:19.916Z,29.67
2022-10-10T07:10:47.163Z,28.20
2022-10-10T07:13:14.192Z,28.58
2022-10-10T07:15:40.715Z,30.50
2022-10-10T07:18:07.953Z,28.67
2022-10-10T07:20:35.384Z,24.92
2022-10-10T07:23:02.863Z,25.88
2022-10-10T07:25:29.321Z,29.10
2022-10-10T07:27:56.988Z,30.75
2022-10-10T07:30:25.215Z,26.52
2022-10-10T07:32:55.484Z,24.38
2022-10-10T07:35:23.094Z,24.83
2022-10-10T07:37:54.241Z,22.63
2022-10-10T07:40:20.718Z,27.10
2022-10-10T07:42:47.227Z,26.55
2022-10-10T07:45:13.897Z,29.50
2022-10-10T07:47:40.813Z,25.65
2022-10-10T07:50:08.071Z,22.20
2022-10-10T07:52:35.529Z,24.75
2022-10-10T07:55:04.107Z,26.02
2022-10-10T07:57:34.954Z,22.17
2022-10-10T08:00:07.998Z,30.83
2022-10-10T08:02:34.762Z,26.58
2022-10-10T08:05:01.182Z,27.05
2022-10-10T08:07:28.082Z,25.63
2022-10-10T08:09:54.567Z,20.60
2022-10-10T08:12:21.459Z,24.40
2022-10-10T08:14:47.949Z,23.98
2022-10-10T08:17:14.479Z,21.42
2022-10-10T08:19:40.917Z,22.27
2022-10-10T08:22:07.627Z,23.00
2022-10-10T08:24:34.087Z,22.92
2022-10-10T08:27:00.511Z,24.58
2022-10-10T08:29:27.003Z,23.42
2022-10-10T08:31:53.468Z,22.63
2022-10-10T08:34:19.990Z,22.33
2022-10-10T08:36:46.420Z,21.00
2022-10-10T08:39:12.889Z,22.63
2022-10-10T08:41:49.801Z,20.60
2022-10-10T08:44:20.033Z,20.55
2022-10-10T08:46:59.590Z,23.33
2022-10-10T08:49:37.175Z,20.05
2022-10-10T08:52:41.101Z,23.63
2022-10-10T08:57:51.377Z,18.38
2022-10-10T09:00:22.139Z,11.25
2022-10-10T09:02:56.499Z,16.45
2022-10-10T09:05:56.172Z,15.82
2022-10-10T09:08:33.892Z,18.10
2022-10-10T09:11:22.925Z,12.88
2022-10-10T09:14:34.952Z,12.00
2022-10-10T09:17:26.088Z,12.27
2022-10-10T09:20:21.868Z,15.73
2022-10-10T09:23:07.808Z,13.27
2022-10-10T09:25:40.269Z,11.10
2022-10-10T09:28:13.585Z,14.27
2022-10-10T09:30:45.234Z,14.32
2022-10-10T09:33:27.427Z,13.38
2022-10-10T09:35:57.683Z,10.57
2022-10-10T09:38:35.673Z,11.55
2022-10-10T09:41:05.342Z,11.23
2022-10-10T09:43:34.280Z,13.32
2022-10-10T09:46:01.568Z,11.25
2022-10-10T09:48:32.864Z,11.85
2022-10-10T09:51:01.351Z,10.82
2022-10-10T09:53:28.161Z,12.23
2022-10-10T09:55:54.983Z,9.93
2022-10-10T09:58:30.142Z,11.93
2022-10-10T10:01:20.388Z,14.45
2022-10-10T10:04:23.396Z,8.77
2022-10-10T10:07:07.311Z,11.43
2022-10-10T10:09:34.183Z,9.30
2022-10-10T10:12:01.682Z,8.45
2022-10-10T10:14:37.124Z,10.38
2022-10-10T10:17:29.979Z,8.32
2022-10-10T10:19:56.489Z,8.02
2022-10-10T10:22:38.570Z,9.77
2022-10-10T10:25:32.968Z,7.60
2022-10-10T10:28:11.643Z,7.75
2022-10-10T10:30:39.764Z,8.38
2022-10-10T10:33:41.428Z,4.43
2022-10-10T10:36:32.636Z,6.35
2022-10-10T10:39:13.899Z,6.90
2022-10-10T10:41:53.991Z,13.40
2022-10-10T10:44:38.559Z,4.43
2022-10-10T10:48:01.226Z,4.35
2022-10-10T10:50:38.299Z,7.65
2022-10-10T10:53:18.891Z,4.55
2022-10-10T10:56:02.233Z,8.43
2022-10-10T11:01:58.027Z,5.03
2022-10-10T11:05:25.201Z,5.57
2022-10-10T11:07:22.241Z,4.83
2022-10-10T11:09:51.454Z,5.00
2022-10-10T11:12:33.659Z,8.40
2022-10-10T11:15:10.569Z,6.50
2022-10-10T11:17:45.332Z,7.32
2022-10-10T11:20:45.621Z,3.88
2022-10-10T11:23:18.674Z,4.68
2022-10-10T11:26:03.236Z,6.57
2022-10-10T11:28:40.084Z,4.68
2022-10-10T11:31:17.181Z,5.93
2022-10-10T11:33:54.300Z,5.68
2022-10-10T11:36:26.516Z,3.80
2022-10-10T11:39:16.799Z,7.40
2022-10-10T11:41:54.280Z,5.00
2022-10-10T11:44:39.677Z,4.65
2022-10-10T11:47:28.230Z,8.15
2022-10-10T11:50:03.804Z,5.53
2022-10-10T11:52:48.527Z,6.03
2022-10-10T11:55:31.384Z,5.00
2022-10-10T11:58:07.081Z,5.25
2022-10-10T12:00:57.868Z,3.47
2022-10-10T12:03:26.318Z,3.92
2022-10-10T12:06:00.518Z,5.57
2022-10-10T12:08:43.477Z,7.60
2022-10-10T12:13:45.092Z,5.53
2022-10-10T12:16:19.342Z,6.72
2022-10-10T12:18:51.886Z,4.93
2022-10-10T12:24:00.559Z,5.85
2022-10-10T12:26:55.060Z,7.63
2022-10-10T12:29:41.755Z,5.60
2022-10-10T12:32:14.307Z,6.38
2022-10-10T12:37:26.503Z,3.47
2022-10-10T12:40:05.270Z,6.20
2022-10-10T12:42:46.908Z,3.92
2022-10-10T12:45:28.633Z,6.05
2022-10-10T12:48:07.090Z,4.75
2022-10-10T12:50:40.417Z,4.93
2022-10-10T12:53:12.947Z,6.22
2022-10-10T12:58:26.527Z,5.22
2022-10-10T13:00:55.778Z,6.30
2022-10-10T13:03:31.697Z,5.10
2022-10-10T13:06:35.529Z,6.03
2022-10-10T13:09:07.607Z,5.65
2022-10-10T13:11:50.631Z,5.70
2022-10-10T13:14:17.059Z,4.93
2022-10-10T13:16:44.513Z,6.30
2022-10-10T13:19:19.728Z,8.15
2022-10-10T13:21:47.166Z,11.88
2022-10-10T13:24:17.745Z,9.10
2022-10-10T13:26:50.439Z,7.68
2022-10-10T13:29:22.026Z,7.05
2022-10-10T13:31:50.041Z,6.47
2022-10-10T13:34:23.480Z,7.90
2022-10-10T13:36:57.760Z,7.85
2022-10-10T13:39:25.359Z,17.13
2022-10-10T13:41:53.762Z,8.60
2022-10-10T13:44:30.525Z,5.93
2022-10-10T13:46:57.076Z,6.50
2022-10-10T13:49:27.261Z,4.95
2022-10-10T13:52:21.539Z,6.97
2022-10-10T13:54:49.026Z,10.23
2022-10-10T13:57:19.665Z,7.82
2022-10-10T13:59:49.518Z,7.38
2022-10-10T14:02:19.049Z,6.40
2022-10-10T14:04:50.776Z,7.72
2022-10-10T14:07:22.100Z,5.88
2022-10-10T14:09:59.090Z,11.93
2022-10-10T14:12:35.810Z,6.55
2022-10-10T14:15:04.950Z,6.22
2022-10-10T14:17:31.484Z,10.48
2022-10-10T14:19:58.011Z,7.68
2022-10-10T14:22:24.513Z,8.10
2022-10-10T14:24:50.986Z,6.38
2022-10-10T14:27:26.923Z,4.90
2022-10-10T14:29:55.965Z,6.60
2022-10-10T14:32:23.005Z,6.13
2022-10-10T14:34:49.637Z,8.25
2022-10-10T14:37:17.819Z,6.03
2022-10-10T14:39:44.597Z,6.28
2022-10-10T14:42:13.338Z,7.10
2022-10-10T14:44:39.822Z,9.05
2022-10-10T14:47:07.159Z,6.65
2022-10-10T14:49:33.626Z,6.35
2022-10-10T14:52:01.457Z,7.32
2022-10-10T14:54:27.890Z,6.80
2022-10-10T14:57:08.899Z,6.85
2022-10-10T14:59:47.260Z,14.48
2022-10-10T15:02:21.775Z,5.60
2022-10-10T15:04:49.201Z,5.82
2022-10-10T15:07:16.190Z,7.53
2022-10-10T15:12:36.077Z,5.25
2022-10-10T15:15:02.872Z,7.70
2022-10-10T15:17:31.024Z,6.03
2022-10-10T15:19:57.531Z,4.57
2022-10-10T15:22:24.051Z,9.80
2022-10-10T15:24:50.527Z,5.40
2022-10-10T15:27:16.938Z,8.05
2022-10-10T15:29:43.381Z,4.70
2022-10-10T15:32:09.828Z,9.77
2022-10-10T15:34:36.498Z,10.27
2022-10-10T15:37:03.034Z,7.13
2022-10-10T15:39:30.910Z,7.55
2022-10-10T15:41:57.515Z,9.43
2022-10-10T15:44:23.984Z,2.70
2022-10-10T15:46:50.705Z,6.32
2022-10-10T15:49:17.132Z,6.82
2022-10-10T15:51:45.804Z,6.25
2022-10-10T15:54:13.195Z,5.55
2022-10-10T15:56:40.158Z,11.38
2022-10-10T15:59:08.262Z,11.00
2022-10-10T16:01:35.684Z,12.32
2022-10-10T16:04:03.622Z,8.43
2022-10-10T16:06:30.053Z,7.95
2022-10-10T16:09:16.366Z,11.77
2022-10-10T16:11:43.023Z,11.82
2022-10-10T16:14:10.036Z,17.10
2022-10-10T16:16:36.496Z,12.30
2022-10-10T16:19:03.352Z,16.30
2022-10-10T16:21:30.517Z,13.52
2022-10-10T16:23:58.270Z,13.45
2022-10-10T16:26:29.243Z,12.02
2022-10-10T16:28:56.407Z,10.20
2022-10-10T16:31:25.032Z,15.75
2022-10-10T16:33:51.781Z,15.63
2022-10-10T16:36:28.133Z,10.75
2022-10-10T16:38:57.350Z,13.63
2022-10-10T16:41:46.581Z,16.02
2022-10-10T16:44:13.113Z,15.15
2022-10-10T16:46:39.607Z,12.77
2022-10-10T16:49:06.021Z,11.32
2022-10-10T16:51:32.685Z,10.85
2022-10-10T16:54:01.640Z,9.73
2022-10-10T16:56:28.445Z,15.13
2022-10-10T16:58:54.933Z,9.65
2022-10-10T17:01:23.192Z,10.20
2022-10-10T17:03:50.562Z,8.52
2022-10-10T17:06:19.538Z,11.05
2022-10-10T17:08:47.667Z,9.93
2022-10-10T17:11:14.745Z,11.48
2022-10-10T17:13:42.205Z,11.75
2022-10-10T17:16:47.718Z,10.50
2022-10-10T17:19:00.860Z,10.27
2022-10-10T17:21:27.427Z,9.18
2022-10-10T17:23:54.184Z,10.10
2022-10-10T17:26:26.072Z,14.10
2022-10-10T17:28:57.791Z,8.23
2022-10-10T17:31:24.962Z,13.57
2022-10-10T17:33:54.188Z,12.52
2022-10-10T17:36:24.138Z,9.50
2022-10-10T17:38:51.882Z,8.52
2022-10-10T17:41:20.208Z,8.15
2022-10-10T17:43:46.701Z,11.38
2022-10-10T17:46:40.388Z,8.98
2022-10-10T17:49:09.024Z,11.00
2022-10-10T17:51:36.650Z,14.82
2022-10-10T17:54:04.448Z,10.02
2022-10-10T17:56:31.634Z,11.95
2022-10-10T17:59:00.533Z,9.73
2022-10-10T18:01:27.752Z,7.97
2022-10-10T18:03:54.243Z,9.63
2022-10-10T18:06:22.707Z,9.55
2022-10-10T18:08:51.279Z,7.00
2022-10-10T18:11:20.802Z,11.57
2022-10-10T18:13:47.301Z,9.90
2022-10-10T18:16:16.594Z,14.18
2022-10-10T18:18:50.339Z,9.80
2022-10-10T18:21:19.548Z,12.13
2022-10-10T18:23:46.065Z,8.00
2022-10-10T18:26:24.200Z,10.05
2022-10-10T18:28:52.617Z,8.18
2022-10-10T18:31:32.957Z,8.95
2022-10-10T18:34:00.726Z,10.52
2022-10-10T18:36:30.168Z,8.65
2022-10-10T18:39:05.495Z,4.28
2022-10-10T18:41:34.849Z,16.90
2022-10-10T18:44:06.947Z,7.75
2022-10-10T18:46:34.701Z,10.55
2022-10-10T18:49:02.314Z,11.68
2022-10-10T18:51:29.859Z,9.95
2022-10-10T18:54:07.513Z,7.40
2022-10-10T18:56:36.326Z,14.10
2022-10-10T18:59:04.857Z,12.70
2022-10-10T19:01:36.188Z,10.35
2022-10-10T19:04:05.097Z,8.90
2022-10-10T19:06:31.683Z,10.77
2022-10-10T19:08:59.797Z,18.88
2022-10-10T19:11:32.332Z,9.07
2022-10-10T19:14:00.711Z,8.55
2022-10-10T19:16:27.834Z,12.10
2022-10-10T19:18:58.613Z,13.35
2022-10-10T19:21:27.098Z,7.38
2022-10-10T19:23:53.542Z,9.90
2022-10-10T19:26:20.001Z,9.10
2022-10-10T19:28:46.859Z,12.52
2022-10-10T19:31:16.044Z,9.07
2022-10-10T19:33:43.366Z,13.13
2022-10-10T19:36:11.558Z,11.43
2022-10-10T19:38:40.131Z,10.63
2022-10-10T19:41:08.706Z,7.18
2022-10-10T19:43:35.149Z,12.57
2022-10-10T19:46:06.453Z,11.50
2022-10-10T19:48:33.608Z,5.78
2022-10-10T19:51:04.547Z,13.98
2022-10-10T19:53:33.336Z,7.22
2022-10-10T19:56:04.106Z,9.65
2022-10-10T19:58:30.854Z,15.95
2022-10-10T20:00:57.791Z,13.10
2022-10-10T20:03:24.991Z,12.30
2022-10-10T20:05:51.770Z,6.47
2022-10-10T20:08:20.179Z,9.65
2022-10-10T20:10:46.678Z,11.90
2022-10-10T20:13:15.986Z,9.38
2022-10-10T20:15:47.210Z,10.02
2022-10-10T20:18:13.689Z,5.63
2022-10-10T20:20:47.748Z,9.15
2022-10-10T20:23:15.549Z,12.13
2022-10-10T20:25:43.947Z,10.00
2022-10-10T20:28:12.017Z,12.60
2022-10-10T20:30:41.165Z,12.68
2022-10-10T20:33:08.299Z,19.00
2022-10-10T20:35:35.809Z,12.18
2022-10-10T20:38:04.416Z,13.63
2022-10-10T20:40:31.374Z,9.32
2022-10-10T20:42:57.901Z,7.45
2022-10-10T20:45:24.494Z,9.20
2022-10-10T20:47:50.954Z,9.65
2022-10-10T20:50:17.672Z,9.23
2022-10-10T20:52:44.580Z,9.00
2022-10-10T20:55:11.160Z,13.25
2022-10-10T20:57:38.430Z,7.47
2022-10-10T21:00:06.085Z,9.00
2022-10-10T21:02:33.895Z,5.32
2022-10-10T21:05:00.408Z,11.80
2022-10-10T21:07:29.002Z,8.05
2022-10-10T21:09:55.544Z,8.30
2022-10-10T21:12:22.083Z,8.93
2022-10-10T21:14:48.611Z,7.70
2022-10-10T21:17:15.056Z,11.80
2022-10-10T21:19:41.538Z,9.48
2022-10-10T21:22:08.030Z,7.63
2022-10-10T21:24:34.543Z,9.80
2022-10-10T21:27:00.972Z,10.73
2022-10-10T21:29:27.450Z,10.35
2022-10-10T21:31:53.886Z,7.20
2022-10-10T21:34:20.337Z,7.25
2022-10-10T21:36:47.026Z,8.68
2022-10-10T21:39:14.519Z,10.25
2022-10-10T21:41:41.312Z,11.70
2022-10-10T21:44:08.255Z,10.27
2022-10-10T21:46:37.049Z,9.50
2022-10-10T21:49:11.239Z,6.97
2022-10-10T21:51:45.528Z,11.30
2022-10-10T21:54:12.644Z,4.82
2022-10-10T21:56:39.690Z,8.80
2022-10-10T21:59:06.969Z,9.15
2022-10-10T22:01:34.016Z,5.95
2022-10-10T22:04:01.959Z,8.07
2022-10-10T22:06:28.660Z,6.10
2022-10-10T22:08:58.270Z,9.65
2022-10-10T22:11:26.232Z,8.40
2022-10-10T22:13:53.079Z,7.22
2022-10-10T22:16:20.366Z,6.13
2022-10-10T22:18:47.075Z,9.80
2022-10-10T22:21:15.975Z,7.85
2022-10-10T22:23:43.678Z,9.57
2022-10-10T22:26:12.154Z,7.15
2022-10-10T22:28:39.085Z,12.90
2022-10-10T22:31:08.047Z,7.35
2022-10-10T22:33:34.645Z,8.68
2022-10-10T22:36:01.288Z,7.60
2022-10-10T22:38:27.889Z,5.40
2022-10-10T22:40:54.322Z,9.18
2022-10-10T22:43:24.857Z,6.63
2022-10-10T22:45:53.191Z,8.48
2022-10-10T22:48:19.606Z,9.30
2022-10-10T22:50:46.104Z,10.50
2022-10-10T22:53:12.676Z,8.68
2022-10-10T22:55:39.123Z,6.95
2022-10-10T22:58:05.576Z,7.15
2022-10-10T23:00:32.069Z,9.65
2022-10-10T23:02:59.125Z,5.90
2022-10-10T23:05:26.375Z,6.82
2022-10-10T23:07:52.830Z,8.13
2022-10-10T23:10:19.435Z,10.20
2022-10-10T23:12:45.981Z,6.95
2022-10-10T23:15:12.432Z,8.63
2022-10-10T23:17:38.962Z,9.45
2022-10-10T23:20:06.154Z,6.82
2022-10-10T23:22:32.627Z,9.65
2022-10-10T23:24:59.058Z,11.25
2022-10-10T23:27:25.556Z,9.68
2022-10-10T23:29:51.994Z,8.80
2022-10-10T23:32:18.433Z,7.93
2022-10-10T23:34:44.840Z,12.18
2022-10-10T23:37:11.448Z,10.40
2022-10-10T23:39:41.630Z,12.10
2022-10-10T23:42:08.062Z,8.32
2022-10-10T23:44:34.575Z,10.23
2022-10-10T23:47:01.051Z,9.30
2022-10-10T23:49:27.489Z,7.95
2022-10-10T23:51:53.934Z,8.27
2022-10-10T23:54:20.761Z,12.90
2022-10-10T23:56:47.193Z,13.40
2022-10-10T23:59:13.664Z,13.23
